sensor_id;sensor_type;location;lat;lon;timestamp;P1;durP1;ratioP1;P2;durP2;ratioP2
36233;SDS011;43467;50.890;5.982;2022-10-31T00:02:01;25.83;;;14.25;;
36233;SDS011;43467;50.890;5.982;2022-10-31T00:04:27;25.13;;;14.25;;
36233;SDS011;43467;50.890;5.982;2022-10-31T00:06:52;27.83;;;13.68;;
36233;SDS011;43467;50.890;5.982;2022-10-31T00:09:17;26.58;;;14.70;;
36233;SDS011;43467;50.890;5.982;2022-10-31T00:11:43;24.90;;;14.48;;
36233;SDS011;43467;50.890;5.982;2022-10-31T00:14:08;23.80;;;13.82;;
36233;SDS011;43467;50.890;5.982;2022-10-31T00:16:33;33.67;;;19.77;;
36233;SDS011;43467;50.890;5.982;2022-10-31T00:19:00;27.98;;;18.23;;
36233;SDS011;43467;50.890;5.982;2022-10-31T00:21:27;30.17;;;15.63;;
36233;SDS011;43467;50.890;5.982;2022-10-31T00:23:53;27.65;;;14.63;;
36233;SDS011;43467;50.890;5.982;2022-10-31T00:26:18;28.15;;;14.63;;
36233;SDS011;43467;50.890;5.982;2022-10-31T00:28:44;27.88;;;14.63;;
36233;SDS011;43467;50.890;5.982;2022-10-31T00:31:10;26.58;;;14.57;;
36233;SDS011;43467;50.890;5.982;2022-10-31T00:33:37;29.02;;;16.35;;
36233;SDS011;43467;50.890;5.982;2022-10-31T00:36:04;28.75;;;16.52;;
36233;SDS011;43467;50.890;5.982;2022-10-31T00:38:30;34.70;;;17.08;;
36233;SDS011;43467;50.890;5.982;2022-10-31T00:40:56;22.95;;;14.13;;
36233;SDS011;43467;50.890;5.982;2022-10-31T00:43:22;29.25;;;16.98;;
36233;SDS011;43467;50.890;5.982;2022-10-31T00:45:47;23.75;;;15.57;;
36233;SDS011;43467;50.890;5.982;2022-10-31T00:48:12;31.17;;;16.52;;
36233;SDS011;43467;50.890;5.982;2022-10-31T00:50:38;25.00;;;14.35;;
36233;SDS011;43467;50.890;5.982;2022-10-31T00:53:04;27.45;;;15.10;;
36233;SDS011;43467;50.890;5.982;2022-10-31T00:55:29;24.75;;;13.93;;
36233;SDS011;43467;50.890;5.982;2022-10-31T00:57:55;28.65;;;14.65;;
36233;SDS011;43467;50.890;5.982;2022-10-31T01:00:20;36.47;;;15.95;;
36233;SDS011;43467;50.890;5.982;2022-10-31T01:02:46;26.55;;;14.52;;
36233;SDS011;43467;50.890;5.982;2022-10-31T01:05:11;26.65;;;14.07;;
36233;SDS011;43467;50.890;5.982;2022-10-31T01:07:38;25.20;;;14.00;;
36233;SDS011;43467;50.890;5.982;2022-10-31T01:10:05;25.00;;;14.18;;
36233;SDS011;43467;50.890;5.982;2022-10-31T01:12:41;29.58;;;15.15;;
36233;SDS011;43467;50.890;5.982;2022-10-31T01:15:09;24.92;;;13.93;;
36233;SDS011;43467;50.890;5.982;2022-10-31T01:17:36;28.67;;;15.93;;
36233;SDS011;43467;50.890;5.982;2022-10-31T01:20:02;24.20;;;14.82;;
36233;SDS011;43467;50.890;5.982;2022-10-31T01:22:28;29.42;;;15.20;;
36233;SDS011;43467;50.890;5.982;2022-10-31T01:24:54;30.25;;;15.30;;
36233;SDS011;43467;50.890;5.982;2022-10-31T01:27:19;22.52;;;14.02;;
36233;SDS011;43467;50.890;5.982;2022-10-31T01:29:45;25.85;;;14.95;;
36233;SDS011;43467;50.890;5.982;2022-10-31T01:32:10;25.52;;;14.75;;
36233;SDS011;43467;50.890;5.982;2022-10-31T01:34:35;25.48;;;13.70;;
36233;SDS011;43467;50.890;5.982;2022-10-31T01:37:01;29.42;;;15.52;;
36233;SDS011;43467;50.890;5.982;2022-10-31T01:39:26;24.95;;;14.05;;
36233;SDS011;43467;50.890;5.982;2022-10-31T01:41:52;29.65;;;14.00;;
36233;SDS011;43467;50.890;5.982;2022-10-31T01:49:13;25.67;;;13.95;;
36233;SDS011;43467;50.890;5.982;2022-10-31T01:51:45;24.83;;;13.48;;
36233;SDS011;43467;50.890;5.982;2022-10-31T01:54:15;23.27;;;13.25;;
36233;SDS011;43467;50.890;5.982;2022-10-31T01:56:43;31.17;;;14.20;;
36233;SDS011;43467;50.890;5.982;2022-10-31T01:59:13;17.73;;;12.00;;
36233;SDS011;43467;50.890;5.982;2022-10-31T02:01:43;22.48;;;13.05;;
36233;SDS011;43467;50.890;5.982;2022-10-31T02:04:08;27.45;;;13.90;;
36233;SDS011;43467;50.890;5.982;2022-10-31T02:06:37;27.83;;;14.57;;
36233;SDS011;43467;50.890;5.982;2022-10-31T02:09:09;20.70;;;13.35;;
36233;SDS011;43467;50.890;5.982;2022-10-31T02:11:36;30.85;;;13.75;;
36233;SDS011;43467;50.890;5.982;2022-10-31T02:14:02;24.17;;;14.00;;
36233;SDS011;43467;50.890;5.982;2022-10-31T02:16:28;24.65;;;12.93;;
36233;SDS011;43467;50.890;5.982;2022-10-31T02:18:53;24.27;;;12.57;;
36233;SDS011;43467;50.890;5.982;2022-10-31T02:21:24;22.08;;;13.27;;
36233;SDS011;43467;50.890;5.982;2022-10-31T02:30:11;23.27;;;12.20;;
36233;SDS011;43467;50.890;5.982;2022-10-31T02:32:52;24.65;;;13.48;;
36233;SDS011;43467;50.890;5.982;2022-10-31T02:35:31;26.55;;;13.43;;
36233;SDS011;43467;50.890;5.982;2022-10-31T02:38:09;22.80;;;12.30;;
36233;SDS011;43467;50.890;5.982;2022-10-31T02:40:51;24.50;;;12.77;;
36233;SDS011;43467;50.890;5.982;2022-10-31T02:46:33;19.08;;;11.30;;
36233;SDS011;43467;50.890;5.982;2022-10-31T02:49:05;22.60;;;13.18;;
36233;SDS011;43467;50.890;5.982;2022-10-31T02:54:22;20.93;;;11.07;;
36233;SDS011;43467;50.890;5.982;2022-10-31T02:56:51;20.00;;;11.23;;
36233;SDS011;43467;50.890;5.982;2022-10-31T02:59:30;27.42;;;12.40;;
36233;SDS011;43467;50.890;5.982;2022-10-31T03:05:02;26.17;;;11.75;;
36233;SDS011;43467;50.890;5.982;2022-10-31T03:10:48;24.52;;;13.13;;
36233;SDS011;43467;50.890;5.982;2022-10-31T03:16:13;22.02;;;12.25;;
36233;SDS011;43467;50.890;5.982;2022-10-31T03:24:02;20.27;;;12.50;;
36233;SDS011;43467;50.890;5.982;2022-10-31T03:26:31;23.95;;;12.93;;
36233;SDS011;43467;50.890;5.982;2022-10-31T03:28:59;26.33;;;13.13;;
36233;SDS011;43467;50.890;5.982;2022-10-31T03:31:32;22.17;;;12.98;;
36233;SDS011;43467;50.890;5.982;2022-10-31T03:34:01;24.70;;;12.73;;
36233;SDS011;43467;50.890;5.982;2022-10-31T03:36:29;22.88;;;12.02;;
36233;SDS011;43467;50.890;5.982;2022-10-31T03:38:57;19.70;;;11.20;;
36233;SDS011;43467;50.890;5.982;2022-10-31T03:41:27;22.13;;;13.27;;
36233;SDS011;43467;50.890;5.982;2022-10-31T03:43:58;26.70;;;13.27;;
36233;SDS011;43467;50.890;5.982;2022-10-31T03:46:28;23.40;;;12.73;;
36233;SDS011;43467;50.890;5.982;2022-10-31T03:48:54;22.75;;;12.30;;
36233;SDS011;43467;50.890;5.982;2022-10-31T03:51:24;21.33;;;12.35;;
36233;SDS011;43467;50.890;5.982;2022-10-31T03:53:56;23.38;;;12.52;;
36233;SDS011;43467;50.890;5.982;2022-10-31T03:56:36;27.83;;;13.27;;
36233;SDS011;43467;50.890;5.982;2022-10-31T03:59:09;24.45;;;12.60;;
36233;SDS011;43467;50.890;5.982;2022-10-31T04:01:42;20.60;;;11.50;;
36233;SDS011;43467;50.890;5.982;2022-10-31T04:04:11;18.13;;;10.52;;
36233;SDS011;43467;50.890;5.982;2022-10-31T04:06:37;20.38;;;11.65;;
36233;SDS011;43467;50.890;5.982;2022-10-31T04:09:06;21.02;;;12.18;;
36233;SDS011;43467;50.890;5.982;2022-10-31T04:11:35;26.55;;;12.38;;
36233;SDS011;43467;50.890;5.982;2022-10-31T04:14:05;29.10;;;13.10;;
36233;SDS011;43467;50.890;5.982;2022-10-31T04:16:31;19.20;;;11.35;;
36233;SDS011;43467;50.890;5.982;2022-10-31T04:18:57;19.40;;;11.18;;
36233;SDS011;43467;50.890;5.982;2022-10-31T04:21:26;19.52;;;11.27;;
36233;SDS011;43467;50.890;5.982;2022-10-31T04:23:53;17.88;;;11.52;;
36233;SDS011;43467;50.890;5.982;2022-10-31T04:26:18;20.63;;;12.10;;
36233;SDS011;43467;50.890;5.982;2022-10-31T04:28:44;20.70;;;10.77;;
36233;SDS011;43467;50.890;5.982;2022-10-31T04:31:10;27.08;;;12.70;;
36233;SDS011;43467;50.890;5.982;2022-10-31T04:33:36;23.25;;;12.18;;
36233;SDS011;43467;50.890;5.982;2022-10-31T04:36:02;21.80;;;12.02;;
36233;SDS011;43467;50.890;5.982;2022-10-31T04:38:27;22.35;;;11.23;;
36233;SDS011;43467;50.890;5.982;2022-10-31T04:40:53;20.15;;;11.02;;
36233;SDS011;43467;50.890;5.982;2022-10-31T04:43:18;24.08;;;12.23;;
36233;SDS011;43467;50.890;5.982;2022-10-31T04:45:43;20.77;;;11.80;;
36233;SDS011;43467;50.890;5.982;2022-10-31T04:48:09;20.63;;;12.48;;
36233;SDS011;43467;50.890;5.982;2022-10-31T04:50:34;18.55;;;11.85;;
36233;SDS011;43467;50.890;5.982;2022-10-31T04:52:59;19.65;;;11.32;;
36233;SDS011;43467;50.890;5.982;2022-10-31T04:55:25;20.45;;;11.23;;
36233;SDS011;43467;50.890;5.982;2022-10-31T04:57:50;21.25;;;11.32;;
36233;SDS011;43467;50.890;5.982;2022-10-31T05:00:17;16.75;;;10.20;;
36233;SDS011;43467;50.890;5.982;2022-10-31T05:02:44;23.00;;;11.68;;
36233;SDS011;43467;50.890;5.982;2022-10-31T05:05:11;21.05;;;10.60;;
36233;SDS011;43467;50.890;5.982;2022-10-31T05:07:38;24.73;;;9.98;;
36233;SDS011;43467;50.890;5.982;2022-10-31T05:10:05;23.48;;;10.93;;
36233;SDS011;43467;50.890;5.982;2022-10-31T05:12:31;18.75;;;10.43;;
36233;SDS011;43467;50.890;5.982;2022-10-31T05:14:56;24.33;;;11.30;;
36233;SDS011;43467;50.890;5.982;2022-10-31T05:17:21;18.77;;;10.98;;
36233;SDS011;43467;50.890;5.982;2022-10-31T05:19:47;22.33;;;10.93;;
36233;SDS011;43467;50.890;5.982;2022-10-31T05:22:12;23.63;;;11.13;;
36233;SDS011;43467;50.890;5.982;2022-10-31T05:24:37;19.92;;;10.07;;
36233;SDS011;43467;50.890;5.982;2022-10-31T05:27:03;20.08;;;12.18;;
36233;SDS011;43467;50.890;5.982;2022-10-31T05:29:28;19.63;;;10.70;;
36233;SDS011;43467;50.890;5.982;2022-10-31T05:31:53;20.92;;;11.75;;
36233;SDS011;43467;50.890;5.982;2022-10-31T05:34:18;21.48;;;10.25;;
36233;SDS011;43467;50.890;5.982;2022-10-31T05:36:44;20.33;;;11.13;;
36233;SDS011;43467;50.890;5.982;2022-10-31T05:39:09;20.00;;;11.10;;
36233;SDS011;43467;50.890;5.982;2022-10-31T05:41:34;20.58;;;10.50;;
36233;SDS011;43467;50.890;5.982;2022-10-31T05:44:00;19.02;;;11.75;;
36233;SDS011;43467;50.890;5.982;2022-10-31T05:46:25;16.27;;;10.65;;
36233;SDS011;43467;50.890;5.982;2022-10-31T05:48:50;20.15;;;11.02;;
36233;SDS011;43467;50.890;5.982;2022-10-31T05:51:16;19.60;;;11.95;;
36233;SDS011;43467;50.890;5.982;2022-10-31T05:53:41;20.02;;;12.30;;
36233;SDS011;43467;50.890;5.982;2022-10-31T05:56:06;23.85;;;11.60;;
36233;SDS011;43467;50.890;5.982;2022-10-31T05:58:32;22.35;;;12.70;;
36233;SDS011;43467;50.890;5.982;2022-10-31T06:00:57;19.00;;;11.15;;
36233;SDS011;43467;50.890;5.982;2022-10-31T06:03:22;24.05;;;12.07;;
36233;SDS011;43467;50.890;5.982;2022-10-31T06:05:48;20.63;;;12.77;;
36233;SDS011;43467;50.890;5.982;2022-10-31T06:08:13;21.27;;;12.40;;
36233;SDS011;43467;50.890;5.982;2022-10-31T06:10:38;18.88;;;11.25;;
36233;SDS011;43467;50.890;5.982;2022-10-31T06:13:04;21.95;;;12.10;;
36233;SDS011;43467;50.890;5.982;2022-10-31T06:15:31;21.02;;;11.57;;
36233;SDS011;43467;50.890;5.982;2022-10-31T06:17:57;23.02;;;12.52;;
36233;SDS011;43467;50.890;5.982;2022-10-31T06:20:27;21.02;;;11.90;;
36233;SDS011;43467;50.890;5.982;2022-10-31T06:22:52;21.83;;;13.02;;
36233;SDS011;43467;50.890;5.982;2022-10-31T06:25:18;27.75;;;13.52;;
36233;SDS011;43467;50.890;5.982;2022-10-31T06:27:43;27.50;;;12.70;;
36233;SDS011;43467;50.890;5.982;2022-10-31T06:30:08;22.10;;;11.70;;
36233;SDS011;43467;50.890;5.982;2022-10-31T06:32:34;24.38;;;12.25;;
36233;SDS011;43467;50.890;5.982;2022-10-31T06:34:59;26.58;;;12.52;;
36233;SDS011;43467;50.890;5.982;2022-10-31T06:37:25;18.33;;;11.00;;
36233;SDS011;43467;50.890;5.982;2022-10-31T06:39:50;21.60;;;12.43;;
36233;SDS011;43467;50.890;5.982;2022-10-31T06:42:16;26.08;;;11.70;;
36233;SDS011;43467;50.890;5.982;2022-10-31T06:44:41;21.88;;;11.05;;
36233;SDS011;43467;50.890;5.982;2022-10-31T06:47:07;22.27;;;11.48;;
36233;SDS011;43467;50.890;5.982;2022-10-31T06:49:32;23.65;;;11.65;;
36233;SDS011;43467;50.890;5.982;2022-10-31T06:51:58;20.05;;;11.50;;
36233;SDS011;43467;50.890;5.982;2022-10-31T06:54:23;19.92;;;11.18;;
36233;SDS011;43467;50.890;5.982;2022-10-31T06:56:48;22.05;;;12.23;;
36233;SDS011;43467;50.890;5.982;2022-10-31T06:59:14;24.80;;;11.57;;
36233;SDS011;43467;50.890;5.982;2022-10-31T07:01:40;20.33;;;11.35;;
36233;SDS011;43467;50.890;5.982;2022-10-31T07:04:06;27.67;;;12.50;;
36233;SDS011;43467;50.890;5.982;2022-10-31T07:06:32;25.65;;;11.27;;
36233;SDS011;43467;50.890;5.982;2022-10-31T07:08:57;25.73;;;11.77;;
36233;SDS011;43467;50.890;5.982;2022-10-31T07:11:23;23.58;;;11.98;;
36233;SDS011;43467;50.890;5.982;2022-10-31T07:13:48;20.00;;;10.85;;
36233;SDS011;43467;50.890;5.982;2022-10-31T07:16:13;24.85;;;11.82;;
36233;SDS011;43467;50.890;5.982;2022-10-31T07:18:39;26.70;;;12.43;;
36233;SDS011;43467;50.890;5.982;2022-10-31T07:21:04;27.25;;;12.68;;
36233;SDS011;43467;50.890;5.982;2022-10-31T07:23:30;26.75;;;12.30;;
36233;SDS011;43467;50.890;5.982;2022-10-31T07:25:56;20.35;;;11.93;;
36233;SDS011;43467;50.890;5.982;2022-10-31T07:28:22;21.20;;;11.75;;
36233;SDS011;43467;50.890;5.982;2022-10-31T07:30:53;27.42;;;12.68;;
36233;SDS011;43467;50.890;5.982;2022-10-31T07:33:19;18.23;;;11.00;;
36233;SDS011;43467;50.890;5.982;2022-10-31T07:35:45;19.27;;;10.60;;
36233;SDS011;43467;50.890;5.982;2022-10-31T07:38:11;26.65;;;13.55;;
36233;SDS011;43467;50.890;5.982;2022-10-31T07:40:37;25.58;;;12.55;;
36233;SDS011;43467;50.890;5.982;2022-10-31T07:43:03;30.88;;;14.50;;
36233;SDS011;43467;50.890;5.982;2022-10-31T07:45:28;28.65;;;14.65;;
36233;SDS011;43467;50.890;5.982;2022-10-31T07:47:54;23.85;;;15.02;;
36233;SDS011;43467;50.890;5.982;2022-10-31T07:50:21;27.58;;;14.43;;
36233;SDS011;43467;50.890;5.982;2022-10-31T07:52:48;28.73;;;14.38;;
36233;SDS011;43467;50.890;5.982;2022-10-31T07:55:22;31.13;;;15.95;;
36233;SDS011;43467;50.890;5.982;2022-10-31T07:57:54;25.60;;;14.52;;
36233;SDS011;43467;50.890;5.982;2022-10-31T08:00:21;31.92;;;15.77;;
36233;SDS011;43467;50.890;5.982;2022-10-31T08:02:46;32.65;;;17.00;;
36233;SDS011;43467;50.890;5.982;2022-10-31T08:05:11;35.53;;;17.92;;
36233;SDS011;43467;50.890;5.982;2022-10-31T08:07:37;32.72;;;17.60;;
36233;SDS011;43467;50.890;5.982;2022-10-31T08:10:02;40.97;;;19.42;;
36233;SDS011;43467;50.890;5.982;2022-10-31T08:12:29;39.85;;;20.85;;
36233;SDS011;43467;50.890;5.982;2022-10-31T08:14:54;40.22;;;22.10;;
36233;SDS011;43467;50.890;5.982;2022-10-31T08:17:19;41.25;;;20.80;;
36233;SDS011;43467;50.890;5.982;2022-10-31T08:19:45;39.88;;;21.92;;
36233;SDS011;43467;50.890;5.982;2022-10-31T08:22:10;40.35;;;20.73;;
36233;SDS011;43467;50.890;5.982;2022-10-31T08:24:35;33.85;;;20.42;;
36233;SDS011;43467;50.890;5.982;2022-10-31T08:27:00;36.38;;;19.98;;
36233;SDS011;43467;50.890;5.982;2022-10-31T08:29:26;38.33;;;21.58;;
36233;SDS011;43467;50.890;5.982;2022-10-31T08:31:51;36.45;;;21.45;;
36233;SDS011;43467;50.890;5.982;2022-10-31T08:34:17;40.28;;;20.75;;
36233;SDS011;43467;50.890;5.982;2022-10-31T08:36:42;42.58;;;20.83;;
36233;SDS011;43467;50.890;5.982;2022-10-31T08:39:09;39.50;;;18.95;;
36233;SDS011;43467;50.890;5.982;2022-10-31T08:41:35;35.97;;;20.65;;
36233;SDS011;43467;50.890;5.982;2022-10-31T08:44:00;31.75;;;19.13;;
36233;SDS011;43467;50.890;5.982;2022-10-31T08:46:26;37.22;;;18.98;;
36233;SDS011;43467;50.890;5.982;2022-10-31T08:48:51;35.67;;;18.00;;
36233;SDS011;43467;50.890;5.982;2022-10-31T08:51:17;36.65;;;19.15;;
36233;SDS011;43467;50.890;5.982;2022-10-31T08:53:42;36.05;;;19.27;;
36233;SDS011;43467;50.890;5.982;2022-10-31T08:56:07;37.55;;;19.42;;
36233;SDS011;43467;50.890;5.982;2022-10-31T08:58:32;43.20;;;21.65;;
36233;SDS011;43467;50.890;5.982;2022-10-31T09:00:59;40.00;;;19.30;;
36233;SDS011;43467;50.890;5.982;2022-10-31T09:03:26;42.42;;;20.00;;
36233;SDS011;43467;50.890;5.982;2022-10-31T09:05:58;34.72;;;19.50;;
36233;SDS011;43467;50.890;5.982;2022-10-31T09:08:24;33.53;;;19.35;;
36233;SDS011;43467;50.890;5.982;2022-10-31T09:10:50;37.15;;;20.20;;
36233;SDS011;43467;50.890;5.982;2022-10-31T09:13:17;37.10;;;20.30;;
36233;SDS011;43467;50.890;5.982;2022-10-31T09:15:45;44.15;;;22.15;;
36233;SDS011;43467;50.890;5.982;2022-10-31T09:18:12;38.50;;;19.98;;
36233;SDS011;43467;50.890;5.982;2022-10-31T09:20:40;42.45;;;21.10;;
36233;SDS011;43467;50.890;5.982;2022-10-31T09:23:08;37.95;;;20.70;;
36233;SDS011;43467;50.890;5.982;2022-10-31T09:25:36;41.08;;;20.08;;
36233;SDS011;43467;50.890;5.982;2022-10-31T09:28:02;45.80;;;22.35;;
36233;SDS011;43467;50.890;5.982;2022-10-31T09:30:29;38.03;;;21.27;;
36233;SDS011;43467;50.890;5.982;2022-10-31T09:32:56;38.38;;;20.58;;
36233;SDS011;43467;50.890;5.982;2022-10-31T09:35:23;43.50;;;22.50;;
36233;SDS011;43467;50.890;5.982;2022-10-31T09:37:59;36.75;;;21.85;;
36233;SDS011;43467;50.890;5.982;2022-10-31T09:40:36;41.30;;;21.10;;
36233;SDS011;43467;50.890;5.982;2022-10-31T09:45:33;42.97;;;21.00;;
36233;SDS011;43467;50.890;5.982;2022-10-31T09:51:07;31.80;;;18.45;;
36233;SDS011;43467;50.890;5.982;2022-10-31T09:53:44;40.05;;;21.00;;
36233;SDS011;43467;50.890;5.982;2022-10-31T09:56:17;31.73;;;18.55;;
36233;SDS011;43467;50.890;5.982;2022-10-31T09:58:50;36.53;;;19.20;;
36233;SDS011;43467;50.890;5.982;2022-10-31T10:04:17;32.60;;;16.17;;
36233;SDS011;43467;50.890;5.982;2022-10-31T10:06:55;39.03;;;17.80;;
36233;SDS011;43467;50.890;5.982;2022-10-31T10:09:24;33.78;;;18.50;;
36233;SDS011;43467;50.890;5.982;2022-10-31T10:33:22;29.40;;;12.65;;
36233;SDS011;43467;50.890;5.982;2022-10-31T10:35:54;27.63;;;14.27;;
36233;SDS011;43467;50.890;5.982;2022-10-31T10:40:54;30.17;;;12.38;;
36233;SDS011;43467;50.890;5.982;2022-10-31T10:43:24;23.02;;;12.38;;
36233;SDS011;43467;50.890;5.982;2022-10-31T10:59:16;22.05;;;11.98;;
36233;SDS011;43467;50.890;5.982;2022-10-31T11:01:44;32.35;;;12.65;;
36233;SDS011;43467;50.890;5.982;2022-10-31T11:04:25;22.67;;;11.13;;
36233;SDS011;43467;50.890;5.982;2022-10-31T11:07:18;20.98;;;10.93;;
36233;SDS011;43467;50.890;5.982;2022-10-31T11:09:43;15.88;;;10.55;;
36233;SDS011;43467;50.890;5.982;2022-10-31T11:12:10;28.83;;;12.15;;
36233;SDS011;43467;50.890;5.982;2022-10-31T11:14:55;23.15;;;12.20;;
36233;SDS011;43467;50.890;5.982;2022-10-31T11:17:30;25.33;;;12.75;;
36233;SDS011;43467;50.890;5.982;2022-10-31T11:20:02;22.08;;;11.07;;
36233;SDS011;43467;50.890;5.982;2022-10-31T11:22:49;23.05;;;12.55;;
36233;SDS011;43467;50.890;5.982;2022-10-31T11:25:24;22.88;;;11.10;;
36233;SDS011;43467;50.890;5.982;2022-10-31T11:30:50;24.77;;;10.30;;
36233;SDS011;43467;50.890;5.982;2022-10-31T11:33:26;22.77;;;10.23;;
36233;SDS011;43467;50.890;5.982;2022-10-31T11:35:55;19.90;;;9.80;;
36233;SDS011;43467;50.890;5.982;2022-10-31T11:38:23;20.15;;;8.93;;
36233;SDS011;43467;50.890;5.982;2022-10-31T11:40:53;20.20;;;9.32;;
36233;SDS011;43467;50.890;5.982;2022-10-31T11:43:22;21.15;;;10.02;;
36233;SDS011;43467;50.890;5.982;2022-10-31T11:45:48;27.17;;;9.25;;
36233;SDS011;43467;50.890;5.982;2022-10-31T11:48:23;17.48;;;8.27;;
36233;SDS011;43467;50.890;5.982;2022-10-31T11:50:51;18.73;;;9.27;;
36233;SDS011;43467;50.890;5.982;2022-10-31T11:53:25;20.83;;;8.93;;
36233;SDS011;43467;50.890;5.982;2022-10-31T11:56:01;18.20;;;8.35;;
36233;SDS011;43467;50.890;5.982;2022-10-31T11:58:26;19.00;;;8.57;;
36233;SDS011;43467;50.890;5.982;2022-10-31T12:00:53;19.35;;;8.57;;
36233;SDS011;43467;50.890;5.982;2022-10-31T12:03:26;16.50;;;8.00;;
36233;SDS011;43467;50.890;5.982;2022-10-31T12:06:02;14.52;;;8.65;;
36233;SDS011;43467;50.890;5.982;2022-10-31T12:08:32;17.90;;;7.75;;
36233;SDS011;43467;50.890;5.982;2022-10-31T12:14:08;22.48;;;10.20;;
36233;SDS011;43467;50.890;5.982;2022-10-31T12:16:52;23.58;;;11.63;;
36233;SDS011;43467;50.890;5.982;2022-10-31T12:25:22;21.75;;;10.82;;
36233;SDS011;43467;50.890;5.982;2022-10-31T12:28:07;27.15;;;11.13;;
36233;SDS011;43467;50.890;5.982;2022-10-31T12:30:57;23.92;;;9.90;;
36233;SDS011;43467;50.890;5.982;2022-10-31T12:58:35;23.08;;;8.65;;
36233;SDS011;43467;50.890;5.982;2022-10-31T13:01:12;14.32;;;6.70;;
36233;SDS011;43467;50.890;5.982;2022-10-31T13:06:49;15.52;;;7.07;;
36233;SDS011;43467;50.890;5.982;2022-10-31T13:09:27;15.82;;;6.38;;
36233;SDS011;43467;50.890;5.982;2022-10-31T13:12:02;19.45;;;6.68;;
36233;SDS011;43467;50.890;5.982;2022-10-31T13:14:34;16.23;;;6.13;;
36233;SDS011;43467;50.890;5.982;2022-10-31T13:17:04;20.05;;;6.85;;
36233;SDS011;43467;50.890;5.982;2022-10-31T13:19:33;23.15;;;9.73;;
36233;SDS011;43467;50.890;5.982;2022-10-31T13:22:13;20.25;;;7.90;;
36233;SDS011;43467;50.890;5.982;2022-10-31T13:27:29;18.02;;;8.13;;
36233;SDS011;43467;50.890;5.982;2022-10-31T13:30:04;16.42;;;7.55;;
36233;SDS011;43467;50.890;5.982;2022-10-31T13:32:39;15.80;;;7.40;;
36233;SDS011;43467;50.890;5.982;2022-10-31T13:35:14;14.65;;;6.68;;
36233;SDS011;43467;50.890;5.982;2022-10-31T13:37:51;19.10;;;7.95;;
36233;SDS011;43467;50.890;5.982;2022-10-31T13:40:34;17.38;;;6.75;;
36233;SDS011;43467;50.890;5.982;2022-10-31T13:43:04;14.15;;;6.53;;
36233;SDS011;43467;50.890;5.982;2022-10-31T13:45:50;17.17;;;6.55;;
36233;SDS011;43467;50.890;5.982;2022-10-31T13:48:32;14.85;;;6.10;;
36233;SDS011;43467;50.890;5.982;2022-10-31T13:51:03;14.85;;;6.15;;
36233;SDS011;43467;50.890;5.982;2022-10-31T13:53:39;13.48;;;6.20;;
36233;SDS011;43467;50.890;5.982;2022-10-31T13:58:33;15.73;;;6.80;;
36233;SDS011;43467;50.890;5.982;2022-10-31T14:01:13;13.52;;;6.25;;
36233;SDS011;43467;50.890;5.982;2022-10-31T14:06:11;14.55;;;5.53;;
36233;SDS011;43467;50.890;5.982;2022-10-31T14:08:39;19.20;;;6.32;;
36233;SDS011;43467;50.890;5.982;2022-10-31T14:11:26;16.70;;;6.95;;
36233;SDS011;43467;50.890;5.982;2022-10-31T14:13:53;13.57;;;6.50;;
36233;SDS011;43467;50.890;5.982;2022-10-31T14:16:26;17.63;;;7.05;;
36233;SDS011;43467;50.890;5.982;2022-10-31T14:18:58;14.02;;;6.15;;
36233;SDS011;43467;50.890;5.982;2022-10-31T14:21:27;16.25;;;6.38;;
36233;SDS011;43467;50.890;5.982;2022-10-31T14:23:55;11.65;;;5.70;;
36233;SDS011;43467;50.890;5.982;2022-10-31T14:28:57;9.55;;;5.28;;
36233;SDS011;43467;50.890;5.982;2022-10-31T14:31:29;12.13;;;6.00;;
36233;SDS011;43467;50.890;5.982;2022-10-31T14:34:35;16.15;;;6.43;;
36233;SDS011;43467;50.890;5.982;2022-10-31T14:51:12;14.48;;;6.15;;
36233;SDS011;43467;50.890;5.982;2022-10-31T14:53:54;14.48;;;5.78;;
36233;SDS011;43467;50.890;5.982;2022-10-31T14:56:23;17.02;;;6.35;;
36233;SDS011;43467;50.890;5.982;2022-10-31T14:58:55;17.92;;;7.32;;
36233;SDS011;43467;50.890;5.982;2022-10-31T15:01:30;13.32;;;5.63;;
36233;SDS011;43467;50.890;5.982;2022-10-31T15:04:00;12.38;;;4.88;;
36233;SDS011;43467;50.890;5.982;2022-10-31T15:06:30;13.32;;;5.88;;
36233;SDS011;43467;50.890;5.982;2022-10-31T15:09:05;11.57;;;6.00;;
36233;SDS011;43467;50.890;5.982;2022-10-31T15:11:45;17.25;;;5.40;;
36233;SDS011;43467;50.890;5.982;2022-10-31T15:14:20;16.38;;;5.55;;
36233;SDS011;43467;50.890;5.982;2022-10-31T15:16:48;15.85;;;5.90;;
36233;SDS011;43467;50.890;5.982;2022-10-31T15:19:16;15.23;;;5.95;;
36233;SDS011;43467;50.890;5.982;2022-10-31T15:21:46;11.02;;;5.75;;
36233;SDS011;43467;50.890;5.982;2022-10-31T15:24:13;17.85;;;6.20;;
36233;SDS011;43467;50.890;5.982;2022-10-31T15:26:50;11.63;;;5.97;;
36233;SDS011;43467;50.890;5.982;2022-10-31T15:29:20;11.55;;;5.75;;
36233;SDS011;43467;50.890;5.982;2022-10-31T15:31:50;14.20;;;6.15;;
36233;SDS011;43467;50.890;5.982;2022-10-31T15:34:19;16.20;;;5.93;;
36233;SDS011;43467;50.890;5.982;2022-10-31T15:36:50;20.35;;;6.15;;
36233;SDS011;43467;50.890;5.982;2022-10-31T15:39:16;16.63;;;5.97;;
36233;SDS011;43467;50.890;5.982;2022-10-31T15:41:52;10.68;;;5.65;;
36233;SDS011;43467;50.890;5.982;2022-10-31T15:44:20;11.15;;;5.25;;
36233;SDS011;43467;50.890;5.982;2022-10-31T15:49:46;13.65;;;5.22;;
36233;SDS011;43467;50.890;5.982;2022-10-31T15:53:00;20.42;;;6.35;;
36233;SDS011;43467;50.890;5.982;2022-10-31T15:57:33;15.93;;;5.97;;
36233;SDS011;43467;50.890;5.982;2022-10-31T16:00:06;15.98;;;6.43;;
36233;SDS011;43467;50.890;5.982;2022-10-31T16:02:45;16.95;;;7.18;;
36233;SDS011;43467;50.890;5.982;2022-10-31T16:05:14;18.42;;;6.30;;
36233;SDS011;43467;50.890;5.982;2022-10-31T16:07:49;13.52;;;6.40;;
36233;SDS011;43467;50.890;5.982;2022-10-31T16:10:23;11.50;;;5.38;;
36233;SDS011;43467;50.890;5.982;2022-10-31T16:12:50;12.55;;;5.53;;
36233;SDS011;43467;50.890;5.982;2022-10-31T16:15:17;14.15;;;5.50;;
36233;SDS011;43467;50.890;5.982;2022-10-31T16:17:45;12.23;;;6.35;;
36233;SDS011;43467;50.890;5.982;2022-10-31T16:20:25;13.57;;;6.20;;
36233;SDS011;43467;50.890;5.982;2022-10-31T16:22:52;19.00;;;7.15;;
36233;SDS011;43467;50.890;5.982;2022-10-31T16:27:51;19.35;;;7.18;;
36233;SDS011;43467;50.890;5.982;2022-10-31T16:30:29;15.15;;;7.82;;
36233;SDS011;43467;50.890;5.982;2022-10-31T16:33:00;14.27;;;7.00;;
36233;SDS011;43467;50.890;5.982;2022-10-31T16:35:27;14.25;;;7.55;;
36233;SDS011;43467;50.890;5.982;2022-10-31T16:38:03;17.13;;;7.40;;
36233;SDS011;43467;50.890;5.982;2022-10-31T16:40:29;13.68;;;6.40;;
36233;SDS011;43467;50.890;5.982;2022-10-31T16:42:59;14.60;;;5.72;;
36233;SDS011;43467;50.890;5.982;2022-10-31T16:45:28;13.48;;;5.47;;
36233;SDS011;43467;50.890;5.982;2022-10-31T16:48:01;17.88;;;5.97;;
36233;SDS011;43467;50.890;5.982;2022-10-31T16:50:29;13.60;;;5.17;;
36233;SDS011;43467;50.890;5.982;2022-10-31T16:52:54;14.48;;;6.50;;
36233;SDS011;43467;50.890;5.982;2022-10-31T16:55:20;13.55;;;5.93;;
36233;SDS011;43467;50.890;5.982;2022-10-31T16:57:47;14.30;;;5.45;;
36233;SDS011;43467;50.890;5.982;2022-10-31T17:00:19;14.90;;;6.30;;
36233;SDS011;43467;50.890;5.982;2022-10-31T17:02:47;13.65;;;5.35;;
36233;SDS011;43467;50.890;5.982;2022-10-31T17:05:15;18.10;;;5.65;;
36233;SDS011;43467;50.890;5.982;2022-10-31T17:07:42;13.40;;;5.72;;